sensor_id;sensor_type;location;lat;lon;timestamp;temperature;humidity
24560;DHT22;12727;49.934;8.656;2023-04-07T00:00:57;6.90;99.90
24560;DHT22;12727;49.934;8.656;2023-04-07T00:03:25;6.90;99.90
24560;DHT22;12727;49.934;8.656;2023-04-07T00:05:50;6.90;99.90
24560;DHT22;12727;49.934;8.656;2023-04-07T00:08:16;6.90;99.90
24560;DHT22;12727;49.934;8.656;2023-04-07T00:10:42;6.90;99.90
24560;DHT22;12727;49.934;8.656;2023-04-07T00:13:07;6.90;99.90
24560;DHT22;12727;49.934;8.656;2023-04-07T00:15:33;7.00;99.90
24560;DHT22;12727;49.934;8.656;2023-04-07T00:17:58;7.00;99.90
24560;DHT22;12727;49.934;8.656;2023-04-07T00:20:24;7.00;99.90
24560;DHT22;12727;49.934;8.656;2023-04-07T00:22:50;7.10;99.90
24560;DHT22;12727;49.934;8.656;2023-04-07T00:25:15;7.30;99.90
24560;DHT22;12727;49.934;8.656;2023-04-07T00:27:41;7.50;99.90
24560;DHT22;12727;49.934;8.656;2023-04-07T00:30:07;7.50;99.90
24560;DHT22;12727;49.934;8.656;2023-04-07T00:32:33;7.30;99.90
24560;DHT22;12727;49.934;8.656;2023-04-07T00:34:58;7.30;99.90
24560;DHT22;12727;49.934;8.656;2023-04-07T00:37:24;7.30;99.90
24560;DHT22;12727;49.934;8.656;2023-04-07T00:39:50;7.20;99.90
24560;DHT22;12727;49.934;8.656;2023-04-07T00:42:17;7.30;99.90
24560;DHT22;12727;49.934;8.656;2023-04-07T00:44:42;7.20;99.90
24560;DHT22;12727;49.934;8.656;2023-04-07T00:47:08;7.10;99.90
24560;DHT22;12727;49.934;8.656;2023-04-07T00:49:36;7.10;99.90
24560;DHT22;12727;49.934;8.656;2023-04-07T00:52:01;7.20;99.90
24560;DHT22;12727;49.934;8.656;2023-04-07T00:54:29;7.10;99.90
24560;DHT22;12727;49.934;8.656;2023-04-07T00:56:55;7.10;99.90
24560;DHT22;12727;49.934;8.656;2023-04-07T00:59:21;7.10;99.90
24560;DHT22;12727;49.934;8.656;2023-04-07T01:02:01;7.10;99.90
24560;DHT22;12727;49.934;8.656;2023-04-07T01:05:04;7.10;99.90
24560;DHT22;12727;49.934;8.656;2023-04-07T01:07:31;7.10;99.90
24560;DHT22;12727;49.934;8.656;2023-04-07T01:10:04;7.10;99.90
24560;DHT22;12727;49.934;8.656;2023-04-07T01:15:10;7.20;99.90
24560;DHT22;12727;49.934;8.656;2023-04-07T01:17:39;7.10;99.90
24560;DHT22;12727;49.934;8.656;2023-04-07T01:20:11;7.20;99.90
24560;DHT22;12727;49.934;8.656;2023-04-07T01:22:58;7.10;99.90
24560;DHT22;12727;49.934;8.656;2023-04-07T01:25:59;7.10;99.90
24560;DHT22;12727;49.934;8.656;2023-04-07T01:28:48;7.10;99.90
24560;DHT22;12727;49.934;8.656;2023-04-07T01:31:14;7.00;99.90
24560;DHT22;12727;49.934;8.656;2023-04-07T01:33:43;7.00;99.90
24560;DHT22;12727;49.934;8.656;2023-04-07T01:36:09;7.00;99.90
24560;DHT22;12727;49.934;8.656;2023-04-07T01:38:36;7.10;99.90
24560;DHT22;12727;49.934;8.656;2023-04-07T01:41:03;7.10;99.90
24560;DHT22;12727;49.934;8.656;2023-04-07T01:43:30;7.00;99.90
24560;DHT22;12727;49.934;8.656;2023-04-07T01:45:57;7.10;99.90
24560;DHT22;12727;49.934;8.656;2023-04-07T01:48:23;7.20;99.90
24560;DHT22;12727;49.934;8.656;2023-04-07T01:50:49;7.10;99.90
24560;DHT22;12727;49.934;8.656;2023-04-07T01:53:15;7.00;99.90
24560;DHT22;12727;49.934;8.656;2023-04-07T01:55:42;7.00;99.90
24560;DHT22;12727;49.934;8.656;2023-04-07T01:58:09;6.90;99.90
24560;DHT22;12727;49.934;8.656;2023-04-07T02:00:35;6.80;99.90
24560;DHT22;12727;49.934;8.656;2023-04-07T02:03:35;7.10;99.90
24560;DHT22;12727;49.934;8.656;2023-04-07T02:06:06;7.00;99.90
24560;DHT22;12727;49.934;8.656;2023-04-07T02:08:35;6.90;99.90
24560;DHT22;12727;49.934;8.656;2023-04-07T02:11:04;7.00;99.90
24560;DHT22;12727;49.934;8.656;2023-04-07T02:13:33;7.10;99.90
24560;DHT22;12727;49.934;8.656;2023-04-07T02:16:00;7.10;99.90
24560;DHT22;12727;49.934;8.656;2023-04-07T02:18:27;7.00;99.90
24560;DHT22;12727;49.934;8.656;2023-04-07T02:20:55;7.10;99.90
24560;DHT22;12727;49.934;8.656;2023-04-07T02:23:21;7.20;99.90
24560;DHT22;12727;49.934;8.656;2023-04-07T02:25:47;7.10;99.90
24560;DHT22;12727;49.934;8.656;2023-04-07T02:28:13;7.10;99.90
24560;DHT22;12727;49.934;8.656;2023-04-07T02:30:38;7.30;99.90
24560;DHT22;12727;49.934;8.656;2023-04-07T02:33:04;7.30;99.90
24560;DHT22;12727;49.934;8.656;2023-04-07T02:35:30;7.20;99.90
24560;DHT22;12727;49.934;8.656;2023-04-07T02:37:55;7.20;99.90
24560;DHT22;12727;49.934;8.656;2023-04-07T02:40:21;7.00;99.90
24560;DHT22;12727;49.934;8.656;2023-04-07T02:42:47;7.00;99.90
24560;DHT22;12727;49.934;8.656;2023-04-07T02:45:12;7.00;99.90
24560;DHT22;12727;49.934;8.656;2023-04-07T02:47:38;7.10;99.90
24560;DHT22;12727;49.934;8.656;2023-04-07T02:50:05;7.00;99.90
24560;DHT22;12727;49.934;8.656;2023-04-07T02:52:30;7.00;99.90
24560;DHT22;12727;49.934;8.656;2023-04-07T02:54:56;6.90;99.90
24560;DHT22;12727;49.934;8.656;2023-04-07T02:57:22;6.90;99.90
24560;DHT22;12727;49.934;8.656;2023-04-07T02:59:47;7.00;99.90
24560;DHT22;12727;49.934;8.656;2023-04-07T03:02:13;6.90;99.90
24560;DHT22;12727;49.934;8.656;2023-04-07T03:04:38;6.90;99.90
24560;DHT22;12727;49.934;8.656;2023-04-07T03:07:04;6.90;99.90
24560;DHT22;12727;49.934;8.656;2023-04-07T03:09:30;6.90;99.90
24560;DHT22;12727;49.934;8.656;2023-04-07T03:11:55;6.90;99.90
24560;DHT22;12727;49.934;8.656;2023-04-07T03:14:21;6.90;99.90
24560;DHT22;12727;49.934;8.656;2023-04-07T03:16:47;6.90;99.90
24560;DHT22;12727;49.934;8.656;2023-04-07T03:19:12;6.90;99.90
24560;DHT22;12727;49.934;8.656;2023-04-07T03:21:38;7.00;99.90
24560;DHT22;12727;49.934;8.656;2023-04-07T03:24:07;7.00;99.90
24560;DHT22;12727;49.934;8.656;2023-04-07T03:26:33;7.20;99.90
24560;DHT22;12727;49.934;8.656;2023-04-07T03:28:58;7.30;99.90
24560;DHT22;12727;49.934;8.656;2023-04-07T03:31:24;7.30;99.90
24560;DHT22;12727;49.934;8.656;2023-04-07T03:33:50;7.10;99.90
24560;DHT22;12727;49.934;8.656;2023-04-07T03:36:16;7.00;99.90
24560;DHT22;12727;49.934;8.656;2023-04-07T03:38:43;7.00;99.90
24560;DHT22;12727;49.934;8.656;2023-04-07T03:41:08;7.20;99.90
24560;DHT22;12727;49.934;8.656;2023-04-07T03:43:34;7.20;99.90
24560;DHT22;12727;49.934;8.656;2023-04-07T03:46:00;7.20;99.90
24560;DHT22;12727;49.934;8.656;2023-04-07T03:48:26;7.10;99.90
24560;DHT22;12727;49.934;8.656;2023-04-07T03:50:51;7.30;99.90
24560;DHT22;12727;49.934;8.656;2023-04-07T03:53:17;7.20;99.90
24560;DHT22;12727;49.934;8.656;2023-04-07T03:55:44;7.60;99.90
24560;DHT22;12727;49.934;8.656;2023-04-07T03:58:10;7.80;99.90
24560;DHT22;12727;49.934;8.656;2023-04-07T04:00:36;7.90;99.90
24560;DHT22;12727;49.934;8.656;2023-04-07T04:03:01;7.70;99.90
24560;DHT22;12727;49.934;8.656;2023-04-07T04:05:27;7.50;99.90
24560;DHT22;12727;49.934;8.656;2023-04-07T04:07:53;7.30;99.90
24560;DHT22;12727;49.934;8.656;2023-04-07T04:10:19;7.40;99.90
24560;DHT22;12727;49.934;8.656;2023-04-07T04:12:46;7.50;99.90
24560;DHT22;12727;49.934;8.656;2023-04-07T04:15:12;7.50;99.90
24560;DHT22;12727;49.934;8.656;2023-04-07T04:17:38;7.20;99.90
24560;DHT22;12727;49.934;8.656;2023-04-07T04:20:03;7.20;99.90
24560;DHT22;12727;49.934;8.656;2023-04-07T04:22:29;7.30;99.90
24560;DHT22;12727;49.934;8.656;2023-04-07T04:24:55;7.50;99.90
24560;DHT22;12727;49.934;8.656;2023-04-07T04:27:21;7.50;99.90
24560;DHT22;12727;49.934;8.656;2023-04-07T04:29:46;7.50;99.90
24560;DHT22;12727;49.934;8.656;2023-04-07T04:32:13;7.60;99.90
24560;DHT22;12727;49.934;8.656;2023-04-07T04:34:38;7.40;99.90
24560;DHT22;12727;49.934;8.656;2023-04-07T04:37:06;7.30;99.90
24560;DHT22;12727;49.934;8.656;2023-04-07T04:39:32;7.40;99.90
24560;DHT22;12727;49.934;8.656;2023-04-07T04:41:57;7.50;99.90
24560;DHT22;12727;49.934;8.656;2023-04-07T04:44:23;7.60;99.90
24560;DHT22;12727;49.934;8.656;2023-04-07T04:46:50;7.50;99.90
24560;DHT22;12727;49.934;8.656;2023-04-07T04:49:15;7.30;99.90
24560;DHT22;12727;49.934;8.656;2023-04-07T04:51:43;7.20;99.90
24560;DHT22;12727;49.934;8.656;2023-04-07T04:54:09;7.20;99.90
24560;DHT22;12727;49.934;8.656;2023-04-07T04:56:34;7.30;99.90
24560;DHT22;12727;49.934;8.656;2023-04-07T04:59:01;7.30;99.90
24560;DHT22;12727;49.934;8.656;2023-04-07T05:01:27;7.30;99.90
24560;DHT22;12727;49.934;8.656;2023-04-07T05:03:53;7.40;99.90
24560;DHT22;12727;49.934;8.656;2023-04-07T05:06:18;7.40;99.90
24560;DHT22;12727;49.934;8.656;2023-04-07T05:08:44;7.30;99.90
24560;DHT22;12727;49.934;8.656;2023-04-07T05:11:11;7.40;99.90
24560;DHT22;12727;49.934;8.656;2023-04-07T05:13:36;7.30;99.90
24560;DHT22;12727;49.934;8.656;2023-04-07T05:16:02;7.40;99.90
24560;DHT22;12727;49.934;8.656;2023-04-07T05:18:28;7.30;99.90
24560;DHT22;12727;49.934;8.656;2023-04-07T05:20:53;7.20;99.90
24560;DHT22;12727;49.934;8.656;2023-04-07T05:23:19;7.10;99.90
24560;DHT22;12727;49.934;8.656;2023-04-07T05:25:44;7.10;99.90
24560;DHT22;12727;49.934;8.656;2023-04-07T05:28:10;7.10;99.90
24560;DHT22;12727;49.934;8.656;2023-04-07T05:30:36;7.20;99.90
24560;DHT22;12727;49.934;8.656;2023-04-07T05:33:01;7.20;99.90
24560;DHT22;12727;49.934;8.656;2023-04-07T05:35:27;7.20;99.90
24560;DHT22;12727;49.934;8.656;2023-04-07T05:37:52;7.20;99.90
24560;DHT22;12727;49.934;8.656;2023-04-07T05:40:18;7.20;99.90
24560;DHT22;12727;49.934;8.656;2023-04-07T05:42:44;7.20;99.90
24560;DHT22;12727;49.934;8.656;2023-04-07T05:45:10;7.20;99.90
24560;DHT22;12727;49.934;8.656;2023-04-07T05:47:36;7.20;99.90
24560;DHT22;12727;49.934;8.656;2023-04-07T05:50:02;7.30;99.90
24560;DHT22;12727;49.934;8.656;2023-04-07T05:52:27;7.20;99.90
24560;DHT22;12727;49.934;8.656;2023-04-07T05:54:53;7.30;99.90
24560;DHT22;12727;49.934;8.656;2023-04-07T05:57:19;7.10;99.90
24560;DHT22;12727;49.934;8.656;2023-04-07T05:59:44;7.10;99.90
24560;DHT22;12727;49.934;8.656;2023-04-07T06:02:10;7.10;99.90
24560;DHT22;12727;49.934;8.656;2023-04-07T06:04:36;7.10;99.90
24560;DHT22;12727;49.934;8.656;2023-04-07T06:07:03;7.10;99.90
24560;DHT22;12727;49.934;8.656;2023-04-07T06:09:29;7.00;99.90
24560;DHT22;12727;49.934;8.656;2023-04-07T06:11:55;7.00;99.90
24560;DHT22;12727;49.934;8.656;2023-04-07T06:14:21;7.00;99.90
24560;DHT22;12727;49.934;8.656;2023-04-07T06:16:46;7.00;99.90
24560;DHT22;12727;49.934;8.656;2023-04-07T06:19:12;7.10;99.90
24560;DHT22;12727;49.934;8.656;2023-04-07T06:21:37;7.10;99.90
24560;DHT22;12727;49.934;8.656;2023-04-07T06:24:04;7.10;99.90
24560;DHT22;12727;49.934;8.656;2023-04-07T06:26:31;7.20;99.90
24560;DHT22;12727;49.934;8.656;2023-04-07T06:28:57;7.30;99.90
24560;DHT22;12727;49.934;8.656;2023-04-07T06:31:23;7.30;99.90
24560;DHT22;12727;49.934;8.656;2023-04-07T06:33:49;7.30;99.90
24560;DHT22;12727;49.934;8.656;2023-04-07T06:36:15;7.30;99.90
24560;DHT22;12727;49.934;8.656;2023-04-07T06:38:40;7.30;99.90
24560;DHT22;12727;49.934;8.656;2023-04-07T06:41:06;7.30;99.90
24560;DHT22;12727;49.934;8.656;2023-04-07T06:43:36;7.50;99.90
24560;DHT22;12727;49.934;8.656;2023-04-07T06:46:02;7.60;99.90
24560;DHT22;12727;49.934;8.656;2023-04-07T06:48:27;7.60;99.90
24560;DHT22;12727;49.934;8.656;2023-04-07T06:50:53;7.80;99.90
24560;DHT22;12727;49.934;8.656;2023-04-07T06:53:18;7.70;99.90
24560;DHT22;12727;49.934;8.656;2023-04-07T06:55:44;7.90;99.90
24560;DHT22;12727;49.934;8.656;2023-04-07T06:58:10;7.90;99.90
24560;DHT22;12727;49.934;8.656;2023-04-07T07:00:36;7.80;99.90
24560;DHT22;12727;49.934;8.656;2023-04-07T07:03:02;7.90;99.90
24560;DHT22;12727;49.934;8.656;2023-04-07T07:05:33;7.80;99.90
24560;DHT22;12727;49.934;8.656;2023-04-07T07:07:59;8.10;99.90
24560;DHT22;12727;49.934;8.656;2023-04-07T07:10:24;8.30;99.90
24560;DHT22;12727;49.934;8.656;2023-04-07T07:12:50;8.20;99.90
24560;DHT22;12727;49.934;8.656;2023-04-07T07:15:16;8.00;99.90
24560;DHT22;12727;49.934;8.656;2023-04-07T07:17:42;7.90;99.90
24560;DHT22;12727;49.934;8.656;2023-04-07T07:20:09;7.80;99.90
24560;DHT22;12727;49.934;8.656;2023-04-07T07:22:34;7.80;99.90
24560;DHT22;12727;49.934;8.656;2023-04-07T07:25:00;7.90;99.90
24560;DHT22;12727;49.934;8.656;2023-04-07T07:27:26;7.90;99.90
24560;DHT22;12727;49.934;8.656;2023-04-07T07:29:51;7.80;99.90
24560;DHT22;12727;49.934;8.656;2023-04-07T07:32:17;7.90;99.90
24560;DHT22;12727;49.934;8.656;2023-04-07T07:34:42;7.70;99.90
24560;DHT22;12727;49.934;8.656;2023-04-07T07:37:08;7.60;99.90
24560;DHT22;12727;49.934;8.656;2023-04-07T07:39:34;7.60;99.90
24560;DHT22;12727;49.934;8.656;2023-04-07T07:42:01;7.80;99.90
24560;DHT22;12727;49.934;8.656;2023-04-07T07:44:26;7.90;99.90
24560;DHT22;12727;49.934;8.656;2023-04-07T07:46:52;7.90;99.90
24560;DHT22;12727;49.934;8.656;2023-04-07T07:49:17;8.10;99.90
24560;DHT22;12727;49.934;8.656;2023-04-07T07:51:43;8.20;99.90
24560;DHT22;12727;49.934;8.656;2023-04-07T07:54:10;8.00;99.90
24560;DHT22;12727;49.934;8.656;2023-04-07T07:56:36;7.90;99.90
24560;DHT22;12727;49.934;8.656;2023-04-07T07:59:04;8.00;99.90
24560;DHT22;12727;49.934;8.656;2023-04-07T08:01:32;8.00;99.90
24560;DHT22;12727;49.934;8.656;2023-04-07T08:03:58;8.20;99.90
24560;DHT22;12727;49.934;8.656;2023-04-07T08:06:24;8.30;99.90
24560;DHT22;12727;49.934;8.656;2023-04-07T08:08:50;8.40;99.90
24560;DHT22;12727;49.934;8.656;2023-04-07T08:11:15;8.70;99.90
24560;DHT22;12727;49.934;8.656;2023-04-07T08:13:41;8.50;99.90
24560;DHT22;12727;49.934;8.656;2023-04-07T08:16:10;8.50;99.90
24560;DHT22;12727;49.934;8.656;2023-04-07T08:18:36;8.70;99.90
24560;DHT22;12727;49.934;8.656;2023-04-07T08:21:03;8.80;99.90
24560;DHT22;12727;49.934;8.656;2023-04-07T08:23:29;9.00;99.90
24560;DHT22;12727;49.934;8.656;2023-04-07T08:25:54;9.20;99.90
24560;DHT22;12727;49.934;8.656;2023-04-07T08:28:20;9.10;99.90
24560;DHT22;12727;49.934;8.656;2023-04-07T08:30:47;9.00;99.90
24560;DHT22;12727;49.934;8.656;2023-04-07T08:33:12;9.20;99.90
24560;DHT22;12727;49.934;8.656;2023-04-07T08:35:38;9.20;99.90
24560;DHT22;12727;49.934;8.656;2023-04-07T08:38:04;9.40;99.90
24560;DHT22;12727;49.934;8.656;2023-04-07T08:40:31;9.60;99.90
24560;DHT22;12727;49.934;8.656;2023-04-07T08:42:59;10.00;99.90
24560;DHT22;12727;49.934;8.656;2023-04-07T08:45:25;10.00;99.90
24560;DHT22;12727;49.934;8.656;2023-04-07T08:47:54;9.90;99.90
24560;DHT22;12727;49.934;8.656;2023-04-07T08:50:25;9.70;99.90
24560;DHT22;12727;49.934;8.656;2023-04-07T08:52:55;9.60;99.90
24560;DHT22;12727;49.934;8.656;2023-04-07T08:55:22;9.70;99.90
24560;DHT22;12727;49.934;8.656;2023-04-07T08:57:48;9.80;99.90
24560;DHT22;12727;49.934;8.656;2023-04-07T09:00:14;9.90;99.90
24560;DHT22;12727;49.934;8.656;2023-04-07T09:03:07;9.80;99.90
24560;DHT22;12727;49.934;8.656;2023-04-07T09:05:34;9.60;99.90
24560;DHT22;12727;49.934;8.656;2023-04-07T09:08:01;9.50;99.90
24560;DHT22;12727;49.934;8.656;2023-04-07T09:10:26;9.40;99.90
24560;DHT22;12727;49.934;8.656;2023-04-07T09:12:52;9.60;99.90
24560;DHT22;12727;49.934;8.656;2023-04-07T09:15:18;9.70;99.90
24560;DHT22;12727;49.934;8.656;2023-04-07T09:17:44;9.80;99.90
24560;DHT22;12727;49.934;8.656;2023-04-07T09:20:10;9.80;99.90
24560;DHT22;12727;49.934;8.656;2023-04-07T09:22:40;10.00;99.90
24560;DHT22;12727;49.934;8.656;2023-04-07T09:25:20;10.20;99.90
24560;DHT22;12727;49.934;8.656;2023-04-07T09:28:02;10.20;99.90
24560;DHT22;12727;49.934;8.656;2023-04-07T09:30:29;10.10;99.90
24560;DHT22;12727;49.934;8.656;2023-04-07T09:32:55;10.30;99.90
24560;DHT22;12727;49.934;8.656;2023-04-07T09:35:22;10.40;99.90
24560;DHT22;12727;49.934;8.656;2023-04-07T09:38:02;10.30;99.90
24560;DHT22;12727;49.934;8.656;2023-04-07T09:40:28;10.40;99.90
24560;DHT22;12727;49.934;8.656;2023-04-07T09:42:54;10.60;99.90
24560;DHT22;12727;49.934;8.656;2023-04-07T09:45:26;10.40;99.90
24560;DHT22;12727;49.934;8.656;2023-04-07T09:47:52;10.40;99.90
24560;DHT22;12727;49.934;8.656;2023-04-07T09:50:35;10.30;99.90
24560;DHT22;12727;49.934;8.656;2023-04-07T09:53:01;10.00;99.90
24560;DHT22;12727;49.934;8.656;2023-04-07T09:55:29;10.00;99.90
24560;DHT22;12727;49.934;8.656;2023-04-07T09:57:55;10.00;99.90
24560;DHT22;12727;49.934;8.656;2023-04-07T10:00:22;9.90;99.90
24560;DHT22;12727;49.934;8.656;2023-04-07T10:02:48;9.90;99.90
24560;DHT22;12727;49.934;8.656;2023-04-07T10:05:16;9.90;99.90
24560;DHT22;12727;49.934;8.656;2023-04-07T10:07:42;9.80;99.90
24560;DHT22;12727;49.934;8.656;2023-04-07T10:10:08;9.80;99.90
24560;DHT22;12727;49.934;8.656;2023-04-07T10:12:36;9.90;99.90
24560;DHT22;12727;49.934;8.656;2023-04-07T10:15:03;10.20;99.90
24560;DHT22;12727;49.934;8.656;2023-04-07T10:17:30;10.20;99.90
24560;DHT22;12727;49.934;8.656;2023-04-07T10:20:01;10.00;99.90
24560;DHT22;12727;49.934;8.656;2023-04-07T10:22:29;9.90;99.90
24560;DHT22;12727;49.934;8.656;2023-04-07T10:27:33;9.70;99.90
24560;DHT22;12727;49.934;8.656;2023-04-07T10:30:00;9.70;99.90
24560;DHT22;12727;49.934;8.656;2023-04-07T10:32:28;9.70;99.90
24560;DHT22;12727;49.934;8.656;2023-04-07T10:34:55;9.80;99.90
24560;DHT22;12727;49.934;8.656;2023-04-07T10:37:23;9.80;99.90
24560;DHT22;12727;49.934;8.656;2023-04-07T10:45:07;10.00;99.90
24560;DHT22;12727;49.934;8.656;2023-04-07T10:48:19;10.00;99.90
24560;DHT22;12727;49.934;8.656;2023-04-07T10:50:22;10.10;99.90
24560;DHT22;12727;49.934;8.656;2023-04-07T10:53:03;10.20;99.90
24560;DHT22;12727;49.934;8.656;2023-04-07T10:55:44;10.40;99.90
24560;DHT22;12727;49.934;8.656;2023-04-07T10:58:13;10.60;99.90
24560;DHT22;12727;49.934;8.656;2023-04-07T11:00:39;10.60;99.90
24560;DHT22;12727;49.934;8.656;2023-04-07T11:03:12;10.60;99.90
24560;DHT22;12727;49.934;8.656;2023-04-07T11:05:41;10.40;99.90
24560;DHT22;12727;49.934;8.656;2023-04-07T11:08:07;10.30;99.90
24560;DHT22;12727;49.934;8.656;2023-04-07T11:10:35;10.40;99.90
24560;DHT22;12727;49.934;8.656;2023-04-07T11:13:03;10.40;99.90
24560;DHT22;12727;49.934;8.656;2023-04-07T11:15:29;10.40;99.90
24560;DHT22;12727;49.934;8.656;2023-04-07T11:18:12;10.50;99.90
24560;DHT22;12727;49.934;8.656;2023-04-07T11:20:44;10.50;99.90
24560;DHT22;12727;49.934;8.656;2023-04-07T11:23:11;10.50;99.90
24560;DHT22;12727;49.934;8.656;2023-04-07T11:25:38;10.60;99.90
24560;DHT22;12727;49.934;8.656;2023-04-07T11:28:04;10.60;99.90
24560;DHT22;12727;49.934;8.656;2023-04-07T11:30:30;10.30;99.90
24560;DHT22;12727;49.934;8.656;2023-04-07T11:32:55;10.30;99.90
24560;DHT22;12727;49.934;8.656;2023-04-07T11:35:22;10.20;99.90
24560;DHT22;12727;49.934;8.656;2023-04-07T11:37:48;10.10;99.90
24560;DHT22;12727;49.934;8.656;2023-04-07T11:40:30;10.10;99.90
24560;DHT22;12727;49.934;8.656;2023-04-07T11:42:58;10.30;99.90
24560;DHT22;12727;49.934;8.656;2023-04-07T11:45:24;10.30;99.90
24560;DHT22;12727;49.934;8.656;2023-04-07T11:47:50;10.20;99.90
24560;DHT22;12727;49.934;8.656;2023-04-07T11:50:16;10.30;99.90
24560;DHT22;12727;49.934;8.656;2023-04-07T11:52:43;10.20;99.90
24560;DHT22;12727;49.934;8.656;2023-04-07T11:55:22;10.40;99.90
24560;DHT22;12727;49.934;8.656;2023-04-07T11:57:49;10.50;99.90
24560;DHT22;12727;49.934;8.656;2023-04-07T12:00:19;10.80;99.90
24560;DHT22;12727;49.934;8.656;2023-04-07T12:02:45;10.90;99.90
24560;DHT22;12727;49.934;8.656;2023-04-07T12:05:11;11.00;99.90
24560;DHT22;12727;49.934;8.656;2023-04-07T12:07:37;11.10;99.90
24560;DHT22;12727;49.934;8.656;2023-04-07T12:10:23;11.10;99.90
24560;DHT22;12727;49.934;8.656;2023-04-07T12:12:51;11.30;99.90
24560;DHT22;12727;49.934;8.656;2023-04-07T12:15:17;11.40;99.90
24560;DHT22;12727;49.934;8.656;2023-04-07T12:17:46;11.30;99.90
24560;DHT22;12727;49.934;8.656;2023-04-07T12:20:12;11.50;99.90
24560;DHT22;12727;49.934;8.656;2023-04-07T12:22:39;11.40;99.90
24560;DHT22;12727;49.934;8.656;2023-04-07T12:25:04;11.40;99.90
24560;DHT22;12727;49.934;8.656;2023-04-07T12:27:30;11.20;99.90
24560;DHT22;12727;49.934;8.656;2023-04-07T12:29:56;11.10;99.90
24560;DHT22;12727;49.934;8.656;2023-04-07T12:32:21;11.00;99.90
24560;DHT22;12727;49.934;8.656;2023-04-07T12:34:47;10.90;99.90
24560;DHT22;12727;49.934;8.656;2023-04-07T12:37:12;10.70;99.90
24560;DHT22;12727;49.934;8.656;2023-04-07T12:39:38;10.80;99.90
24560;DHT22;12727;49.934;8.656;2023-04-07T12:42:04;10.80;99.90
24560;DHT22;12727;49.934;8.656;2023-04-07T12:44:30;10.80;99.90
24560;DHT22;12727;49.934;8.656;2023-04-07T12:46:55;10.80;99.90
24560;DHT22;12727;49.934;8.656;2023-04-07T12:49:21;11.10;99.90
24560;DHT22;12727;49.934;8.656;2023-04-07T12:51:47;11.20;99.90
24560;DHT22;12727;49.934;8.656;2023-04-07T12:54:13;11.20;99.90
24560;DHT22;12727;49.934;8.656;2023-04-07T12:56:39;11.30;99.90
24560;DHT22;12727;49.934;8.656;2023-04-07T12:59:06;11.40;99.90
24560;DHT22;12727;49.934;8.656;2023-04-07T13:01:32;11.40;99.90
24560;DHT22;12727;49.934;8.656;2023-04-07T13:03:59;11.50;99.90
24560;DHT22;12727;49.934;8.656;2023-04-07T13:06:26;11.40;99.90
24560;DHT22;12727;49.934;8.656;2023-04-07T13:08:52;11.70;99.90
24560;DHT22;12727;49.934;8.656;2023-04-07T13:11:17;11.70;99.90
24560;DHT22;12727;49.934;8.656;2023-04-07T13:13:43;11.70;99.90
24560;DHT22;12727;49.934;8.656;2023-04-07T13:16:09;11.40;99.90
24560;DHT22;12727;49.934;8.656;2023-04-07T13:18:34;11.30;99.90
24560;DHT22;12727;49.934;8.656;2023-04-07T13:21:01;11.20;99.90
24560;DHT22;12727;49.934;8.656;2023-04-07T13:23:27;11.10;99.90
24560;DHT22;12727;49.934;8.656;2023-04-07T13:25:53;10.90;99.90
24560;DHT22;12727;49.934;8.656;2023-04-07T13:28:18;10.90;99.90
24560;DHT22;12727;49.934;8.656;2023-04-07T13:30:46;10.80;99.90
24560;DHT22;12727;49.934;8.656;2023-04-07T13:33:11;10.90;99.90
24560;DHT22;12727;49.934;8.656;2023-04-07T13:35:37;10.90;99.90
24560;DHT22;12727;49.934;8.656;2023-04-07T13:38:03;11.00;99.90
24560;DHT22;12727;49.934;8.656;2023-04-07T13:40:29;11.20;99.90
24560;DHT22;12727;49.934;8.656;2023-04-07T13:42:55;11.30;99.90
24560;DHT22;12727;49.934;8.656;2023-04-07T13:45:22;11.30;99.90
24560;DHT22;12727;49.934;8.656;2023-04-07T13:47:47;11.50;99.90
24560;DHT22;12727;49.934;8.656;2023-04-07T13:50:13;11.50;99.90
24560;DHT22;12727;49.934;8.656;2023-04-07T13:52:38;11.70;99.90
24560;DHT22;12727;49.934;8.656;2023-04-07T13:55:05;11.80;99.90
24560;DHT22;12727;49.934;8.656;2023-04-07T13:57:31;11.80;99.90
24560;DHT22;12727;49.934;8.656;2023-04-07T13:59:56;11.90;99.90
24560;DHT22;12727;49.934;8.656;2023-04-07T14:02:22;11.70;99.90
24560;DHT22;12727;49.934;8.656;2023-04-07T14:04:49;11.70;99.90
24560;DHT22;12727;49.934;8.656;2023-04-07T14:07:14;11.70;99.90
24560;DHT22;12727;49.934;8.656;2023-04-07T14:09:40;11.70;99.90
24560;DHT22;12727;49.934;8.656;2023-04-07T14:12:07;11.70;99.90
24560;DHT22;12727;49.934;8.656;2023-04-07T14:14:33;11.70;99.90
24560;DHT22;12727;49.934;8.656;2023-04-07T14:16:59;11.70;99.90
24560;DHT22;12727;49.934;8.656;2023-04-07T14:19:24;11.60;99.90
24560;DHT22;12727;49.934;8.656;2023-04-07T14:21:50;11.60;99.90
24560;DHT22;12727;49.934;8.656;2023-04-07T14:24:16;11.70;99.90
24560;DHT22;12727;49.934;8.656;2023-04-07T14:26:43;11.50;99.90
24560;DHT22;12727;49.934;8.656;2023-04-07T14:29:09;11.60;99.90
24560;DHT22;12727;49.934;8.656;2023-04-07T14:31:35;11.50;99.90
24560;DHT22;12727;49.934;8.656;2023-04-07T14:34:01;11.50;99.90
24560;DHT22;12727;49.934;8.656;2023-04-07T14:36:27;11.50;99.90
24560;DHT22;12727;49.934;8.656;2023-04-07T14:38:52;11.40;99.90
24560;DHT22;12727;49.934;8.656;2023-04-07T14:41:18;11.40;99.90
24560;DHT22;12727;49.934;8.656;2023-04-07T14:43:45;11.50;99.90
24560;DHT22;12727;49.934;8.656;2023-04-07T14:46:12;11.40;99.90
24560;DHT22;12727;49.934;8.656;2023-04-07T14:48:39;11.50;99.90
24560;DHT22;12727;49.934;8.656;2023-04-07T14:51:14;11.70;99.90
24560;DHT22;12727;49.934;8.656;2023-04-07T14:53:40;11.70;99.90
24560;DHT22;12727;49.934;8.656;2023-04-07T14:56:06;11.70;99.90
24560;DHT22;12727;49.934;8.656;2023-04-07T14:58:32;11.70;99.90
24560;DHT22;12727;49.934;8.656;2023-04-07T15:00:58;11.70;99.90
24560;DHT22;12727;49.934;8.656;2023-04-07T15:03:23;11.80;99.90
24560;DHT22;12727;49.934;8.656;2023-04-07T15:05:49;11.70;99.90
24560;DHT22;12727;49.934;8.656;2023-04-07T15:08:15;11.80;99.90
24560;DHT22;12727;49.934;8.656;2023-04-07T15:10:41;11.70;99.90
24560;DHT22;12727;49.934;8.656;2023-04-07T15:13:06;11.90;99.90
24560;DHT22;12727;49.934;8.656;2023-04-07T15:15:32;11.90;99.90
24560;DHT22;12727;49.934;8.656;2023-04-07T15:17:57;11.90;99.90
24560;DHT22;12727;49.934;8.656;2023-04-07T15:20:23;11.70;99.90
24560;DHT22;12727;49.934;8.656;2023-04-07T15:22:49;11.70;99.90
24560;DHT22;12727;49.934;8.656;2023-04-07T15:25:14;11.60;99.90
24560;DHT22;12727;49.934;8.656;2023-04-07T15:27:41;11.80;99.90
24560;DHT22;12727;49.934;8.656;2023-04-07T15:30:07;11.70;99.90
24560;DHT22;12727;49.934;8.656;2023-04-07T15:32:33;11.50;99.90
24560;DHT22;12727;49.934;8.656;2023-04-07T15:34:58;11.50;99.90
24560;DHT22;12727;49.934;8.656;2023-04-07T15:37:24;11.50;99.90
24560;DHT22;12727;49.934;8.656;2023-04-07T15:39:50;11.50;99.90
24560;DHT22;12727;49.934;8.656;2023-04-07T15:42:18;11.50;99.90
24560;DHT22;12727;49.934;8.656;2023-04-07T15:44:44;11.50;99.90
24560;DHT22;12727;49.934;8.656;2023-04-07T15:47:09;11.40;99.90
24560;DHT22;12727;49.934;8.656;2023-04-07T15:49:35;11.30;99.90